sensor_id;sensor_type;location;lat;lon;timestamp;temperature;humidity
3942;DHT22;1985;48.592;8.850;2023-06-22T00:01:58;23.60;99.90
3942;DHT22;1985;48.592;8.850;2023-06-22T00:04:24;23.60;99.90
3942;DHT22;1985;48.592;8.850;2023-06-22T00:06:50;23.60;99.90
3942;DHT22;1985;48.592;8.850;2023-06-22T00:09:16;23.60;99.90
3942;DHT22;1985;48.592;8.850;2023-06-22T00:11:42;23.60;99.90
3942;DHT22;1985;48.592;8.850;2023-06-22T00:14:07;23.50;99.90
3942;DHT22;1985;48.592;8.850;2023-06-22T00:16:33;23.50;99.90
3942;DHT22;1985;48.592;8.850;2023-06-22T00:18:59;23.40;99.90
3942;DHT22;1985;48.592;8.850;2023-06-22T00:21:28;23.40;99.90
3942;DHT22;1985;48.592;8.850;2023-06-22T00:23:54;23.50;99.90
3942;DHT22;1985;48.592;8.850;2023-06-22T00:26:21;23.50;99.90
3942;DHT22;1985;48.592;8.850;2023-06-22T00:28:47;23.30;99.90
3942;DHT22;1985;48.592;8.850;2023-06-22T00:31:13;23.30;99.90
3942;DHT22;1985;48.592;8.850;2023-06-22T00:33:38;23.30;99.90
3942;DHT22;1985;48.592;8.850;2023-06-22T00:36:05;23.30;99.90
3942;DHT22;1985;48.592;8.850;2023-06-22T00:38:30;23.10;99.90
3942;DHT22;1985;48.592;8.850;2023-06-22T00:40:56;23.10;99.90
3942;DHT22;1985;48.592;8.850;2023-06-22T00:43:22;23.10;99.90
3942;DHT22;1985;48.592;8.850;2023-06-22T00:45:47;23.20;99.90
3942;DHT22;1985;48.592;8.850;2023-06-22T00:48:14;23.20;99.90
3942;DHT22;1985;48.592;8.850;2023-06-22T00:50:40;23.20;99.90
3942;DHT22;1985;48.592;8.850;2023-06-22T00:53:07;23.20;99.90
3942;DHT22;1985;48.592;8.850;2023-06-22T00:55:46;23.20;99.90
3942;DHT22;1985;48.592;8.850;2023-06-22T00:58:17;23.00;99.90
3942;DHT22;1985;48.592;8.850;2023-06-22T01:00:47;23.00;99.90
3942;DHT22;1985;48.592;8.850;2023-06-22T01:03:13;23.00;99.90
3942;DHT22;1985;48.592;8.850;2023-06-22T01:05:39;23.00;99.90
3942;DHT22;1985;48.592;8.850;2023-06-22T01:11:08;23.00;99.90
3942;DHT22;1985;48.592;8.850;2023-06-22T01:16:27;23.00;99.90
3942;DHT22;1985;48.592;8.850;2023-06-22T01:18:56;23.00;99.90
3942;DHT22;1985;48.592;8.850;2023-06-22T01:21:24;23.00;99.90
3942;DHT22;1985;48.592;8.850;2023-06-22T01:23:56;23.00;99.90
3942;DHT22;1985;48.592;8.850;2023-06-22T01:29:25;22.90;99.90
3942;DHT22;1985;48.592;8.850;2023-06-22T01:31:53;22.90;99.90
3942;DHT22;1985;48.592;8.850;2023-06-22T01:34:20;22.90;99.90
3942;DHT22;1985;48.592;8.850;2023-06-22T01:36:46;22.80;99.90
3942;DHT22;1985;48.592;8.850;2023-06-22T01:39:13;22.80;99.90
3942;DHT22;1985;48.592;8.850;2023-06-22T01:41:39;22.80;99.90
3942;DHT22;1985;48.592;8.850;2023-06-22T01:44:08;22.70;99.90
3942;DHT22;1985;48.592;8.850;2023-06-22T01:46:35;22.70;99.90
3942;DHT22;1985;48.592;8.850;2023-06-22T01:49:02;22.70;99.90
3942;DHT22;1985;48.592;8.850;2023-06-22T01:51:29;22.70;99.90
3942;DHT22;1985;48.592;8.850;2023-06-22T01:53:55;22.60;99.90
3942;DHT22;1985;48.592;8.850;2023-06-22T01:56:21;22.60;99.90
3942;DHT22;1985;48.592;8.850;2023-06-22T02:01:38;22.70;99.90
3942;DHT22;1985;48.592;8.850;2023-06-22T02:04:13;22.70;99.90
3942;DHT22;1985;48.592;8.850;2023-06-22T02:06:42;22.70;99.90
3942;DHT22;1985;48.592;8.850;2023-06-22T02:09:12;22.70;99.90
3942;DHT22;1985;48.592;8.850;2023-06-22T02:11:41;22.60;99.90
3942;DHT22;1985;48.592;8.850;2023-06-22T02:14:08;22.50;99.90
3942;DHT22;1985;48.592;8.850;2023-06-22T02:16:35;22.50;99.90
3942;DHT22;1985;48.592;8.850;2023-06-22T02:19:02;22.50;99.90
3942;DHT22;1985;48.592;8.850;2023-06-22T02:21:31;22.40;99.90
3942;DHT22;1985;48.592;8.850;2023-06-22T02:23:58;22.30;99.90
3942;DHT22;1985;48.592;8.850;2023-06-22T02:26:24;21.60;99.90
3942;DHT22;1985;48.592;8.850;2023-06-22T02:28:50;21.70;99.90
3942;DHT22;1985;48.592;8.850;2023-06-22T02:31:16;21.70;99.90
3942;DHT22;1985;48.592;8.850;2023-06-22T02:33:42;21.90;99.90
3942;DHT22;1985;48.592;8.850;2023-06-22T02:36:09;22.00;99.90
3942;DHT22;1985;48.592;8.850;2023-06-22T02:38:35;22.00;99.90
3942;DHT22;1985;48.592;8.850;2023-06-22T02:41:02;22.00;99.90
3942;DHT22;1985;48.592;8.850;2023-06-22T02:43:27;22.20;99.90
3942;DHT22;1985;48.592;8.850;2023-06-22T02:45:53;22.20;99.90
3942;DHT22;1985;48.592;8.850;2023-06-22T02:48:19;22.30;99.90
3942;DHT22;1985;48.592;8.850;2023-06-22T02:50:44;22.30;99.90
3942;DHT22;1985;48.592;8.850;2023-06-22T02:53:10;22.40;99.90
3942;DHT22;1985;48.592;8.850;2023-06-22T02:55:36;22.40;99.90
3942;DHT22;1985;48.592;8.850;2023-06-22T02:58:01;22.40;99.90
3942;DHT22;1985;48.592;8.850;2023-06-22T03:00:30;22.50;99.90
3942;DHT22;1985;48.592;8.850;2023-06-22T03:02:57;22.50;99.90
3942;DHT22;1985;48.592;8.850;2023-06-22T03:05:23;22.50;99.90
3942;DHT22;1985;48.592;8.850;2023-06-22T03:07:49;22.50;99.90
3942;DHT22;1985;48.592;8.850;2023-06-22T03:10:16;22.40;99.90
3942;DHT22;1985;48.592;8.850;2023-06-22T03:12:42;22.40;99.90
3942;DHT22;1985;48.592;8.850;2023-06-22T03:15:11;22.30;99.90
3942;DHT22;1985;48.592;8.850;2023-06-22T03:17:38;22.30;99.90
3942;DHT22;1985;48.592;8.850;2023-06-22T03:20:08;22.20;99.90
3942;DHT22;1985;48.592;8.850;2023-06-22T03:22:35;22.20;99.90
3942;DHT22;1985;48.592;8.850;2023-06-22T03:25:01;22.20;99.90
3942;DHT22;1985;48.592;8.850;2023-06-22T03:27:27;22.10;99.90
3942;DHT22;1985;48.592;8.850;2023-06-22T03:29:52;22.00;99.90
3942;DHT22;1985;48.592;8.850;2023-06-22T03:32:18;22.00;99.90
3942;DHT22;1985;48.592;8.850;2023-06-22T03:34:44;21.90;99.90
3942;DHT22;1985;48.592;8.850;2023-06-22T03:37:13;21.90;99.90
3942;DHT22;1985;48.592;8.850;2023-06-22T03:39:39;21.80;99.90
3942;DHT22;1985;48.592;8.850;2023-06-22T03:42:05;21.80;99.90
3942;DHT22;1985;48.592;8.850;2023-06-22T03:44:31;21.80;99.90
3942;DHT22;1985;48.592;8.850;2023-06-22T03:46:56;21.80;99.90
3942;DHT22;1985;48.592;8.850;2023-06-22T03:49:22;21.80;99.90
3942;DHT22;1985;48.592;8.850;2023-06-22T03:51:48;21.90;99.90
3942;DHT22;1985;48.592;8.850;2023-06-22T03:54:13;22.00;99.90
3942;DHT22;1985;48.592;8.850;2023-06-22T03:56:39;21.90;99.90
3942;DHT22;1985;48.592;8.850;2023-06-22T03:59:04;21.80;99.90
3942;DHT22;1985;48.592;8.850;2023-06-22T04:01:30;21.80;99.90
3942;DHT22;1985;48.592;8.850;2023-06-22T04:03:56;21.90;99.90
3942;DHT22;1985;48.592;8.850;2023-06-22T04:06:21;21.90;99.90
3942;DHT22;1985;48.592;8.850;2023-06-22T04:08:48;21.90;99.90
3942;DHT22;1985;48.592;8.850;2023-06-22T04:11:16;21.90;99.90
3942;DHT22;1985;48.592;8.850;2023-06-22T04:13:42;22.00;99.90
3942;DHT22;1985;48.592;8.850;2023-06-22T04:16:08;22.10;99.90
3942;DHT22;1985;48.592;8.850;2023-06-22T04:18:33;22.10;99.90
3942;DHT22;1985;48.592;8.850;2023-06-22T04:20:59;22.20;99.90
3942;DHT22;1985;48.592;8.850;2023-06-22T04:23:25;22.30;99.90
3942;DHT22;1985;48.592;8.850;2023-06-22T04:25:50;22.30;99.90
3942;DHT22;1985;48.592;8.850;2023-06-22T04:28:17;22.40;99.90
3942;DHT22;1985;48.592;8.850;2023-06-22T04:30:42;22.50;99.90
3942;DHT22;1985;48.592;8.850;2023-06-22T04:33:15;22.50;99.90
3942;DHT22;1985;48.592;8.850;2023-06-22T04:35:41;22.60;99.90
3942;DHT22;1985;48.592;8.850;2023-06-22T04:38:07;22.70;99.90
3942;DHT22;1985;48.592;8.850;2023-06-22T04:40:33;22.70;99.90
3942;DHT22;1985;48.592;8.850;2023-06-22T04:42:58;22.70;99.90
3942;DHT22;1985;48.592;8.850;2023-06-22T04:45:28;22.80;99.90
3942;DHT22;1985;48.592;8.850;2023-06-22T04:47:54;22.80;99.90
3942;DHT22;1985;48.592;8.850;2023-06-22T04:50:20;22.90;99.90
3942;DHT22;1985;48.592;8.850;2023-06-22T04:52:47;22.90;99.90
3942;DHT22;1985;48.592;8.850;2023-06-22T04:55:14;23.00;99.90
3942;DHT22;1985;48.592;8.850;2023-06-22T04:57:44;23.00;99.90
3942;DHT22;1985;48.592;8.850;2023-06-22T05:00:15;23.10;99.90
3942;DHT22;1985;48.592;8.850;2023-06-22T05:02:43;23.20;99.90
3942;DHT22;1985;48.592;8.850;2023-06-22T05:05:10;23.20;99.90
3942;DHT22;1985;48.592;8.850;2023-06-22T05:07:39;23.30;99.90
3942;DHT22;1985;48.592;8.850;2023-06-22T05:10:08;23.40;99.90
3942;DHT22;1985;48.592;8.850;2023-06-22T05:12:35;23.50;99.90
3942;DHT22;1985;48.592;8.850;2023-06-22T05:15:00;23.50;99.90
3942;DHT22;1985;48.592;8.850;2023-06-22T05:17:27;23.60;99.90
3942;DHT22;1985;48.592;8.850;2023-06-22T05:19:53;23.60;99.90
3942;DHT22;1985;48.592;8.850;2023-06-22T05:22:19;23.60;99.90
3942;DHT22;1985;48.592;8.850;2023-06-22T05:24:45;23.60;99.90
3942;DHT22;1985;48.592;8.850;2023-06-22T05:27:11;23.70;99.90
3942;DHT22;1985;48.592;8.850;2023-06-22T05:29:37;23.70;99.90
3942;DHT22;1985;48.592;8.850;2023-06-22T05:32:03;23.60;99.90
3942;DHT22;1985;48.592;8.850;2023-06-22T05:34:29;23.70;99.90
3942;DHT22;1985;48.592;8.850;2023-06-22T05:36:54;23.80;99.90
3942;DHT22;1985;48.592;8.850;2023-06-22T05:39:20;23.80;99.90
3942;DHT22;1985;48.592;8.850;2023-06-22T05:41:46;23.80;99.90
3942;DHT22;1985;48.592;8.850;2023-06-22T05:44:12;23.80;99.90
3942;DHT22;1985;48.592;8.850;2023-06-22T05:46:42;23.70;99.90
3942;DHT22;1985;48.592;8.850;2023-06-22T05:49:12;23.60;99.90
3942;DHT22;1985;48.592;8.850;2023-06-22T05:51:39;23.60;99.90
3942;DHT22;1985;48.592;8.850;2023-06-22T05:54:04;23.60;99.90
3942;DHT22;1985;48.592;8.850;2023-06-22T05:56:30;23.60;99.90
3942;DHT22;1985;48.592;8.850;2023-06-22T05:58:56;23.70;99.90
3942;DHT22;1985;48.592;8.850;2023-06-22T06:01:21;23.80;99.90
3942;DHT22;1985;48.592;8.850;2023-06-22T06:03:47;23.80;99.90
3942;DHT22;1985;48.592;8.850;2023-06-22T06:06:15;23.90;99.90
3942;DHT22;1985;48.592;8.850;2023-06-22T06:08:41;23.90;99.90
3942;DHT22;1985;48.592;8.850;2023-06-22T06:11:07;23.90;99.90
3942;DHT22;1985;48.592;8.850;2023-06-22T06:13:32;24.00;99.90
3942;DHT22;1985;48.592;8.850;2023-06-22T06:15:58;24.00;99.90
3942;DHT22;1985;48.592;8.850;2023-06-22T06:18:24;24.10;99.90
3942;DHT22;1985;48.592;8.850;2023-06-22T06:20:50;24.20;99.90
3942;DHT22;1985;48.592;8.850;2023-06-22T06:23:16;24.30;99.90
3942;DHT22;1985;48.592;8.850;2023-06-22T06:25:41;24.30;99.90
3942;DHT22;1985;48.592;8.850;2023-06-22T06:28:07;24.40;99.90
3942;DHT22;1985;48.592;8.850;2023-06-22T06:30:33;24.50;99.90
3942;DHT22;1985;48.592;8.850;2023-06-22T06:32:58;24.50;99.90
3942;DHT22;1985;48.592;8.850;2023-06-22T06:35:24;24.60;99.90
3942;DHT22;1985;48.592;8.850;2023-06-22T06:37:50;24.70;99.90
3942;DHT22;1985;48.592;8.850;2023-06-22T06:40:18;24.80;99.90
3942;DHT22;1985;48.592;8.850;2023-06-22T06:42:45;24.80;99.90
3942;DHT22;1985;48.592;8.850;2023-06-22T06:45:22;24.80;99.90
3942;DHT22;1985;48.592;8.850;2023-06-22T06:47:48;24.90;99.90
3942;DHT22;1985;48.592;8.850;2023-06-22T06:50:14;24.90;99.90
3942;DHT22;1985;48.592;8.850;2023-06-22T06:52:40;25.00;99.90
3942;DHT22;1985;48.592;8.850;2023-06-22T06:55:07;24.90;99.90
3942;DHT22;1985;48.592;8.850;2023-06-22T06:57:37;24.90;99.90
3942;DHT22;1985;48.592;8.850;2023-06-22T07:00:05;25.00;99.90
3942;DHT22;1985;48.592;8.850;2023-06-22T07:02:35;25.10;99.90
3942;DHT22;1985;48.592;8.850;2023-06-22T07:05:00;25.00;99.90
3942;DHT22;1985;48.592;8.850;2023-06-22T07:07:29;25.00;99.90
3942;DHT22;1985;48.592;8.850;2023-06-22T07:09:54;25.00;99.90
3942;DHT22;1985;48.592;8.850;2023-06-22T07:12:20;25.10;99.90
3942;DHT22;1985;48.592;8.850;2023-06-22T07:14:46;25.10;99.90
3942;DHT22;1985;48.592;8.850;2023-06-22T07:17:12;25.20;99.90
3942;DHT22;1985;48.592;8.850;2023-06-22T07:19:37;25.30;99.90
3942;DHT22;1985;48.592;8.850;2023-06-22T07:22:04;25.40;99.90
3942;DHT22;1985;48.592;8.850;2023-06-22T07:24:30;25.40;99.90
3942;DHT22;1985;48.592;8.850;2023-06-22T07:26:55;25.50;99.90
3942;DHT22;1985;48.592;8.850;2023-06-22T07:29:23;25.50;99.90
3942;DHT22;1985;48.592;8.850;2023-06-22T07:31:49;25.50;99.90
3942;DHT22;1985;48.592;8.850;2023-06-22T07:34:17;25.50;99.90
3942;DHT22;1985;48.592;8.850;2023-06-22T07:36:43;25.40;99.90
3942;DHT22;1985;48.592;8.850;2023-06-22T07:39:09;25.50;99.90
3942;DHT22;1985;48.592;8.850;2023-06-22T07:41:35;25.60;99.90
3942;DHT22;1985;48.592;8.850;2023-06-22T07:44:01;25.60;99.90
3942;DHT22;1985;48.592;8.850;2023-06-22T07:46:27;25.60;99.90
3942;DHT22;1985;48.592;8.850;2023-06-22T07:48:56;25.60;99.90
3942;DHT22;1985;48.592;8.850;2023-06-22T07:51:21;25.60;99.90
3942;DHT22;1985;48.592;8.850;2023-06-22T07:53:47;25.40;99.90
3942;DHT22;1985;48.592;8.850;2023-06-22T07:56:13;25.30;99.90
3942;DHT22;1985;48.592;8.850;2023-06-22T07:58:39;25.20;99.90
3942;DHT22;1985;48.592;8.850;2023-06-22T08:01:05;25.00;99.90
3942;DHT22;1985;48.592;8.850;2023-06-22T08:03:31;25.10;99.90
3942;DHT22;1985;48.592;8.850;2023-06-22T08:05:57;25.10;99.90
3942;DHT22;1985;48.592;8.850;2023-06-22T08:08:23;25.00;99.90
3942;DHT22;1985;48.592;8.850;2023-06-22T08:10:49;25.10;99.90
3942;DHT22;1985;48.592;8.850;2023-06-22T08:13:15;25.20;99.90
3942;DHT22;1985;48.592;8.850;2023-06-22T08:15:40;25.40;99.90
3942;DHT22;1985;48.592;8.850;2023-06-22T08:18:06;25.30;99.90
3942;DHT22;1985;48.592;8.850;2023-06-22T08:20:32;25.30;99.90
3942;DHT22;1985;48.592;8.850;2023-06-22T08:22:58;25.40;99.90
3942;DHT22;1985;48.592;8.850;2023-06-22T08:25:30;25.20;99.90
3942;DHT22;1985;48.592;8.850;2023-06-22T08:27:56;25.40;99.90
3942;DHT22;1985;48.592;8.850;2023-06-22T08:30:21;25.70;99.90
3942;DHT22;1985;48.592;8.850;2023-06-22T08:32:47;25.90;99.90
3942;DHT22;1985;48.592;8.850;2023-06-22T08:35:14;26.00;99.90
3942;DHT22;1985;48.592;8.850;2023-06-22T08:37:39;26.00;99.90
3942;DHT22;1985;48.592;8.850;2023-06-22T08:40:08;26.10;99.90
3942;DHT22;1985;48.592;8.850;2023-06-22T08:42:34;26.40;99.90
3942;DHT22;1985;48.592;8.850;2023-06-22T08:45:00;26.70;99.90
3942;DHT22;1985;48.592;8.850;2023-06-22T08:47:27;26.90;99.90
3942;DHT22;1985;48.592;8.850;2023-06-22T08:49:53;27.00;99.90
3942;DHT22;1985;48.592;8.850;2023-06-22T08:52:19;26.60;99.90
3942;DHT22;1985;48.592;8.850;2023-06-22T08:54:45;26.40;99.90
3942;DHT22;1985;48.592;8.850;2023-06-22T08:57:11;26.50;99.90
3942;DHT22;1985;48.592;8.850;2023-06-22T08:59:37;26.50;99.90
3942;DHT22;1985;48.592;8.850;2023-06-22T09:02:02;26.60;99.90
3942;DHT22;1985;48.592;8.850;2023-06-22T09:04:28;26.80;99.90
3942;DHT22;1985;48.592;8.850;2023-06-22T09:06:54;26.90;99.90
3942;DHT22;1985;48.592;8.850;2023-06-22T09:09:21;26.90;99.90
3942;DHT22;1985;48.592;8.850;2023-06-22T09:11:47;26.90;99.90
3942;DHT22;1985;48.592;8.850;2023-06-22T09:14:12;26.90;99.90
3942;DHT22;1985;48.592;8.850;2023-06-22T09:16:38;26.60;99.90
3942;DHT22;1985;48.592;8.850;2023-06-22T09:19:04;26.80;99.90
3942;DHT22;1985;48.592;8.850;2023-06-22T09:21:29;26.90;99.90
3942;DHT22;1985;48.592;8.850;2023-06-22T09:23:55;27.10;99.90
3942;DHT22;1985;48.592;8.850;2023-06-22T09:26:21;27.30;99.90
3942;DHT22;1985;48.592;8.850;2023-06-22T09:28:49;27.40;99.90
3942;DHT22;1985;48.592;8.850;2023-06-22T09:31:14;27.10;99.90
3942;DHT22;1985;48.592;8.850;2023-06-22T09:33:42;27.00;99.90
3942;DHT22;1985;48.592;8.850;2023-06-22T09:36:07;27.00;99.90
3942;DHT22;1985;48.592;8.850;2023-06-22T09:38:39;27.10;99.90
3942;DHT22;1985;48.592;8.850;2023-06-22T09:41:05;27.40;99.90
3942;DHT22;1985;48.592;8.850;2023-06-22T09:43:32;27.70;99.90
3942;DHT22;1985;48.592;8.850;2023-06-22T09:46:00;27.90;99.90
3942;DHT22;1985;48.592;8.850;2023-06-22T09:48:27;28.20;99.90
3942;DHT22;1985;48.592;8.850;2023-06-22T09:50:53;28.30;99.90
3942;DHT22;1985;48.592;8.850;2023-06-22T09:53:19;28.40;99.80
3942;DHT22;1985;48.592;8.850;2023-06-22T09:55:45;28.10;99.60
3942;DHT22;1985;48.592;8.850;2023-06-22T09:58:10;27.90;99.80
3942;DHT22;1985;48.592;8.850;2023-06-22T10:00:36;27.90;99.90
3942;DHT22;1985;48.592;8.850;2023-06-22T10:03:01;28.00;99.90
3942;DHT22;1985;48.592;8.850;2023-06-22T10:05:27;28.20;99.90
3942;DHT22;1985;48.592;8.850;2023-06-22T10:07:53;28.40;99.90
3942;DHT22;1985;48.592;8.850;2023-06-22T10:10:18;28.70;98.80
3942;DHT22;1985;48.592;8.850;2023-06-22T10:12:47;28.70;98.60
3942;DHT22;1985;48.592;8.850;2023-06-22T10:15:14;28.80;98.20
3942;DHT22;1985;48.592;8.850;2023-06-22T10:17:39;28.80;98.20
3942;DHT22;1985;48.592;8.850;2023-06-22T10:20:06;29.10;98.20
3942;DHT22;1985;48.592;8.850;2023-06-22T10:22:42;29.50;97.00
3942;DHT22;1985;48.592;8.850;2023-06-22T10:25:09;29.90;95.60
3942;DHT22;1985;48.592;8.850;2023-06-22T10:27:35;30.10;95.80
3942;DHT22;1985;48.592;8.850;2023-06-22T10:30:01;30.20;94.70
3942;DHT22;1985;48.592;8.850;2023-06-22T10:32:27;30.40;94.80
3942;DHT22;1985;48.592;8.850;2023-06-22T10:34:54;30.20;93.40
3942;DHT22;1985;48.592;8.850;2023-06-22T10:37:19;30.10;93.50
3942;DHT22;1985;48.592;8.850;2023-06-22T10:39:45;30.00;93.90
3942;DHT22;1985;48.592;8.850;2023-06-22T10:42:12;30.00;93.00
3942;DHT22;1985;48.592;8.850;2023-06-22T10:44:37;29.50;93.90
3942;DHT22;1985;48.592;8.850;2023-06-22T10:47:04;29.60;94.70
3942;DHT22;1985;48.592;8.850;2023-06-22T10:49:30;29.90;93.80
3942;DHT22;1985;48.592;8.850;2023-06-22T10:51:55;30.00;92.70
3942;DHT22;1985;48.592;8.850;2023-06-22T10:54:21;29.80;92.20
3942;DHT22;1985;48.592;8.850;2023-06-22T10:56:47;29.80;92.50
3942;DHT22;1985;48.592;8.850;2023-06-22T10:59:12;29.70;92.50
3942;DHT22;1985;48.592;8.850;2023-06-22T11:01:38;29.70;92.50
3942;DHT22;1985;48.592;8.850;2023-06-22T11:04:04;29.90;93.20
3942;DHT22;1985;48.592;8.850;2023-06-22T11:06:29;29.90;92.40
3942;DHT22;1985;48.592;8.850;2023-06-22T11:08:55;29.90;93.40
3942;DHT22;1985;48.592;8.850;2023-06-22T11:11:21;29.90;93.30
3942;DHT22;1985;48.592;8.850;2023-06-22T11:13:46;29.90;93.20
3942;DHT22;1985;48.592;8.850;2023-06-22T11:16:12;30.00;92.80
3942;DHT22;1985;48.592;8.850;2023-06-22T11:18:37;30.10;91.70
3942;DHT22;1985;48.592;8.850;2023-06-22T11:21:03;30.10;93.10
3942;DHT22;1985;48.592;8.850;2023-06-22T11:23:29;30.40;91.80
3942;DHT22;1985;48.592;8.850;2023-06-22T11:25:55;30.40;90.90
3942;DHT22;1985;48.592;8.850;2023-06-22T11:28:20;30.10;90.80
3942;DHT22;1985;48.592;8.850;2023-06-22T11:30:46;30.00;91.70
3942;DHT22;1985;48.592;8.850;2023-06-22T11:33:12;30.10;92.80
3942;DHT22;1985;48.592;8.850;2023-06-22T11:35:37;30.20;92.50
3942;DHT22;1985;48.592;8.850;2023-06-22T11:38:03;30.20;91.80
3942;DHT22;1985;48.592;8.850;2023-06-22T11:40:30;30.10;91.80
3942;DHT22;1985;48.592;8.850;2023-06-22T11:42:56;29.90;91.50
3942;DHT22;1985;48.592;8.850;2023-06-22T11:45:21;29.70;93.50
3942;DHT22;1985;48.592;8.850;2023-06-22T11:47:47;29.60;94.20
3942;DHT22;1985;48.592;8.850;2023-06-22T11:50:13;29.40;94.50
3942;DHT22;1985;48.592;8.850;2023-06-22T11:52:39;29.20;94.80
3942;DHT22;1985;48.592;8.850;2023-06-22T11:55:05;29.10;95.50
3942;DHT22;1985;48.592;8.850;2023-06-22T11:57:36;29.20;95.90
3942;DHT22;1985;48.592;8.850;2023-06-22T12:00:04;29.10;95.90
3942;DHT22;1985;48.592;8.850;2023-06-22T12:02:41;29.10;95.60
3942;DHT22;1985;48.592;8.850;2023-06-22T12:05:07;29.10;96.50
3942;DHT22;1985;48.592;8.850;2023-06-22T12:07:33;29.20;95.00
3942;DHT22;1985;48.592;8.850;2023-06-22T12:09:59;29.20;94.70
3942;DHT22;1985;48.592;8.850;2023-06-22T12:12:24;29.20;95.30
3942;DHT22;1985;48.592;8.850;2023-06-22T12:14:50;29.00;95.70
3942;DHT22;1985;48.592;8.850;2023-06-22T12:17:15;28.90;96.20
3942;DHT22;1985;48.592;8.850;2023-06-22T12:19:41;28.90;96.90
3942;DHT22;1985;48.592;8.850;2023-06-22T12:22:07;29.00;96.80
3942;DHT22;1985;48.592;8.850;2023-06-22T12:24:32;29.00;96.50
3942;DHT22;1985;48.592;8.850;2023-06-22T12:26:58;29.10;96.30
3942;DHT22;1985;48.592;8.850;2023-06-22T12:29:24;29.20;96.50
3942;DHT22;1985;48.592;8.850;2023-06-22T12:31:49;29.40;96.10
3942;DHT22;1985;48.592;8.850;2023-06-22T12:34:15;29.50;96.50
3942;DHT22;1985;48.592;8.850;2023-06-22T12:36:40;29.60;95.20
3942;DHT22;1985;48.592;8.850;2023-06-22T12:39:06;29.60;95.60
3942;DHT22;1985;48.592;8.850;2023-06-22T12:41:32;29.40;95.60
3942;DHT22;1985;48.592;8.850;2023-06-22T12:43:57;29.20;96.10
3942;DHT22;1985;48.592;8.850;2023-06-22T12:46:23;29.10;96.60
3942;DHT22;1985;48.592;8.850;2023-06-22T12:48:48;29.00;96.80
3942;DHT22;1985;48.592;8.850;2023-06-22T12:51:21;29.00;96.90
3942;DHT22;1985;48.592;8.850;2023-06-22T12:53:47;28.90;96.60
3942;DHT22;1985;48.592;8.850;2023-06-22T12:56:13;28.90;97.00
3942;DHT22;1985;48.592;8.850;2023-06-22T12:58:38;28.80;97.40
3942;DHT22;1985;48.592;8.850;2023-06-22T13:01:04;28.80;98.20
3942;DHT22;1985;48.592;8.850;2023-06-22T13:03:29;29.00;98.60
3942;DHT22;1985;48.592;8.850;2023-06-22T13:05:55;29.00;97.30
3942;DHT22;1985;48.592;8.850;2023-06-22T13:08:21;29.10;96.90
3942;DHT22;1985;48.592;8.850;2023-06-22T13:10:46;29.10;96.10
3942;DHT22;1985;48.592;8.850;2023-06-22T13:13:12;29.20;95.90
3942;DHT22;1985;48.592;8.850;2023-06-22T13:15:38;29.30;96.90
3942;DHT22;1985;48.592;8.850;2023-06-22T13:18:03;29.40;96.60
3942;DHT22;1985;48.592;8.850;2023-06-22T13:20:29;29.40;95.50
3942;DHT22;1985;48.592;8.850;2023-06-22T13:22:55;29.40;95.80
3942;DHT22;1985;48.592;8.850;2023-06-22T13:25:21;29.50;96.10
3942;DHT22;1985;48.592;8.850;2023-06-22T13:27:50;29.40;95.40
3942;DHT22;1985;48.592;8.850;2023-06-22T13:30:16;29.40;96.10
3942;DHT22;1985;48.592;8.850;2023-06-22T13:32:42;29.40;96.60
3942;DHT22;1985;48.592;8.850;2023-06-22T13:35:09;29.50;96.80
3942;DHT22;1985;48.592;8.850;2023-06-22T13:37:35;29.50;97.10
3942;DHT22;1985;48.592;8.850;2023-06-22T13:40:01;29.40;96.80
3942;DHT22;1985;48.592;8.850;2023-06-22T13:42:28;29.30;97.30
3942;DHT22;1985;48.592;8.850;2023-06-22T13:44:54;29.40;97.90
3942;DHT22;1985;48.592;8.850;2023-06-22T13:47:20;29.50;98.10
3942;DHT22;1985;48.592;8.850;2023-06-22T13:49:45;29.50;98.30
3942;DHT22;1985;48.592;8.850;2023-06-22T13:52:11;29.50;98.70
3942;DHT22;1985;48.592;8.850;2023-06-22T13:54:38;29.60;98.60
3942;DHT22;1985;48.592;8.850;2023-06-22T13:57:04;29.80;98.50
3942;DHT22;1985;48.592;8.850;2023-06-22T13:59:30;30.20;99.40
3942;DHT22;1985;48.592;8.850;2023-06-22T14:01:55;30.50;96.70
3942;DHT22;1985;48.592;8.850;2023-06-22T14:04:24;30.60;90.80
3942;DHT22;1985;48.592;8.850;2023-06-22T14:06:50;30.50;81.90
3942;DHT22;1985;48.592;8.850;2023-06-22T14:09:16;30.50;81.40
3942;DHT22;1985;48.592;8.850;2023-06-22T14:11:41;30.50;78.30
3942;DHT22;1985;48.592;8.850;2023-06-22T14:14:07;30.50;75.40
3942;DHT22;1985;48.592;8.850;2023-06-22T14:16:32;30.60;74.10
3942;DHT22;1985;48.592;8.850;2023-06-22T14:18:58;30.70;71.90
3942;DHT22;1985;48.592;8.850;2023-06-22T14:21:25;30.60;64.70
3942;DHT22;1985;48.592;8.850;2023-06-22T14:23:51;30.40;62.60
3942;DHT22;1985;48.592;8.850;2023-06-22T14:26:16;30.40;64.00
3942;DHT22;1985;48.592;8.850;2023-06-22T14:28:48;30.40;63.20
3942;DHT22;1985;48.592;8.850;2023-06-22T14:31:15;30.40;64.50
3942;DHT22;1985;48.592;8.850;2023-06-22T14:33:44;30.40;63.70
3942;DHT22;1985;48.592;8.850;2023-06-22T14:36:10;30.40;62.30
3942;DHT22;1985;48.592;8.850;2023-06-22T14:38:36;30.40;62.40
3942;DHT22;1985;48.592;8.850;2023-06-22T14:41:01;30.50;62.40
3942;DHT22;1985;48.592;8.850;2023-06-22T14:43:27;30.50;61.00
3942;DHT22;1985;48.592;8.850;2023-06-22T14:45:53;30.60;61.40
3942;DHT22;1985;48.592;8.850;2023-06-22T14:48:18;30.60;60.00
3942;DHT22;1985;48.592;8.850;2023-06-22T14:50:44;30.60;59.80
3942;DHT22;1985;48.592;8.850;2023-06-22T14:53:09;30.50;59.00
3942;DHT22;1985;48.592;8.850;2023-06-22T14:55:35;30.40;57.70
3942;DHT22;1985;48.592;8.850;2023-06-22T14:58:00;30.30;57.80
3942;DHT22;1985;48.592;8.850;2023-06-22T15:00:26;30.20;59.00
3942;DHT22;1985;48.592;8.850;2023-06-22T15:02:52;30.00;57.50
3942;DHT22;1985;48.592;8.850;2023-06-22T15:05:17;30.10;59.10
3942;DHT22;1985;48.592;8.850;2023-06-22T15:07:43;30.20;59.90
3942;DHT22;1985;48.592;8.850;2023-06-22T15:10:09;30.30;59.90
3942;DHT22;1985;48.592;8.850;2023-06-22T15:12:35;30.20;59.30
3942;DHT22;1985;48.592;8.850;2023-06-22T15:15:01;30.20;59.70
3942;DHT22;1985;48.592;8.850;2023-06-22T15:17:26;30.10;59.40
3942;DHT22;1985;48.592;8.850;2023-06-22T15:19:57;30.10;60.10
3942;DHT22;1985;48.592;8.850;2023-06-22T15:22:23;29.90;60.20
3942;DHT22;1985;48.592;8.850;2023-06-22T15:24:49;29.50;59.70
3942;DHT22;1985;48.592;8.850;2023-06-22T15:27:14;29.40;61.40
3942;DHT22;1985;48.592;8.850;2023-06-22T15:29:40;29.40;62.00
3942;DHT22;1985;48.592;8.850;2023-06-22T15:32:07;29.40;62.50
3942;DHT22;1985;48.592;8.850;2023-06-22T15:34:32;29.10;63.20
3942;DHT22;1985;48.592;8.850;2023-06-22T15:36:59;29.10;63.80
3942;DHT22;1985;48.592;8.850;2023-06-22T15:39:25;29.00;63.90
3942;DHT22;1985;48.592;8.850;2023-06-22T15:41:52;29.00;64.60
3942;DHT22;1985;48.592;8.850;2023-06-22T15:44:24;29.00;64.90
3942;DHT22;1985;48.592;8.850;2023-06-22T15:46:49;29.10;65.00
3942;DHT22;1985;48.592;8.850;2023-06-22T15:49:18;29.00;63.70
3942;DHT22;1985;48.592;8.850;2023-06-22T15:51:44;28.90;64.50
3942;DHT22;1985;48.592;8.850;2023-06-22T15:54:11;28.80;65.40
3942;DHT22;1985;48.592;8.850;2023-06-22T15:56:37;28.80;66.40
3942;DHT22;1985;48.592;8.850;2023-06-22T15:59:03;28.80;65.10
3942;DHT22;1985;48.592;8.850;2023-06-22T16:01:28;28.80;64.50
3942;DHT22;1985;48.592;8.850;2023-06-22T16:03:54;28.60;63.70
3942;DHT22;1985;48.592;8.850;2023-06-22T16:06:20;28.50;64.60
3942;DHT22;1985;48.592;8.850;2023-06-22T16:08:46;28.40;65.00